Time;durP1;ratioP1;P1;durP2;ratioP2;P2;SDS_P1;SDS_P2;PMS_P1;PMS_P2;Temp;Humidity;BMP_temperature;BMP_pressure;BME280_temperature;BME280_humidity;BME280_pressure;Samples;Min_cycle;Max_cycle;Signal;HPM_P1;HPM_P2
2021/10/25 00:01:31;;;;;;;22.45;15.35;;;6.90;99.90;;;;;;6247939;23;20031;-79
2021/10/25 00:03:59;;;;;;;22.80;15.23;;;6.90;99.90;;;;;;6247173;23;20043;-79
2021/10/25 00:06:26;;;;;;;19.70;14.77;;;6.90;99.90;;;;;;6264091;22;20047;-79
2021/10/25 00:08:53;;;;;;;21.55;14.63;;;6.90;99.90;;;;;;6276899;22;20055;-79
2021/10/25 00:11:21;;;;;;;20.83;14.25;;;6.80;99.90;;;;;;6276112;22;20107;-78
2021/10/25 00:13:48;;;;;;;24.85;15.32;;;6.80;99.90;;;;;;6275677;22;20090;-79
2021/10/25 00:16:15;;;;;;;21.48;14.45;;;6.80;99.90;;;;;;6281140;22;20051;-80
2021/10/25 00:18:42;;;;;;;22.08;14.75;;;6.80;99.90;;;;;;6285710;22;20091;-80
2021/10/25 00:21:09;;;;;;;19.92;15.60;;;6.80;99.90;;;;;;6284580;22;20023;-80
2021/10/25 00:23:37;;;;;;;21.92;15.25;;;6.80;99.90;;;;;;6287877;22;20024;-81
2021/10/25 00:26:04;;;;;;;24.05;15.07;;;6.70;99.90;;;;;;6285984;22;20023;-80
2021/10/25 00:28:32;;;;;;;22.27;14.65;;;6.70;99.90;;;;;;6286895;22;20023;-80
2021/10/25 00:30:59;;;;;;;20.67;14.45;;;6.70;99.90;;;;;;6288975;22;20024;-80
2021/10/25 00:33:26;;;;;;;23.83;14.88;;;6.60;99.90;;;;;;6288182;22;20023;-81
2021/10/25 00:35:53;;;;;;;21.73;15.10;;;6.60;99.90;;;;;;6287241;22;20139;-80
2021/10/25 00:38:21;;;;;;;24.05;15.40;;;6.60;99.90;;;;;;6287031;22;20499;-80
2021/10/25 00:40:48;;;;;;;21.55;14.80;;;6.60;99.90;;;;;;6282832;22;20023;-80
2021/10/25 00:43:14;;;;;;;25.05;14.73;;;6.50;99.90;;;;;;6283521;22;20028;-80
2021/10/25 00:45:43;;;;;;;21.23;14.32;;;6.50;99.90;;;;;;6283447;22;20019;-80
2021/10/25 00:48:10;;;;;;;21.05;14.30;;;6.50;99.90;;;;;;6286362;22;20027;-80
2021/10/25 00:50:39;;;;;;;22.80;14.57;;;6.40;99.90;;;;;;6291982;22;20031;-79
2021/10/25 00:53:08;;;;;;;22.17;15.25;;;6.50;99.90;;;;;;6280895;22;20093;-80
2021/10/25 00:55:36;;;;;;;20.40;14.77;;;6.40;99.90;;;;;;6278419;22;20016;-79
2021/10/25 00:58:03;;;;;;;23.42;14.98;;;6.40;99.90;;;;;;6281050;22;20058;-80
2021/10/25 01:00:30;;;;;;;23.50;15.43;;;6.30;99.90;;;;;;6285935;22;20098;-80
2021/10/25 01:02:59;;;;;;;22.30;14.90;;;6.30;99.90;;;;;;6285120;22;20020;-81
2021/10/25 01:05:26;;;;;;;20.30;14.95;;;6.20;99.90;;;;;;6280251;22;20080;-79
2021/10/25 01:07:55;;;;;;;19.88;14.82;;;6.30;99.90;;;;;;6281104;22;20028;-79
2021/10/25 01:10:23;;;;;;;22.05;15.73;;;6.20;99.90;;;;;;6278652;22;20302;-78
2021/10/25 01:12:52;;;;;;;21.70;15.82;;;6.20;99.90;;;;;;6278182;22;20043;-80
2021/10/25 01:15:19;;;;;;;23.88;15.73;;;6.20;99.90;;;;;;6280809;22;20079;-79
2021/10/25 01:17:46;;;;;;;23.77;16.55;;;6.20;99.90;;;;;;6280511;22;20055;-79
2021/10/25 01:20:14;;;;;;;23.08;15.98;;;6.20;99.90;;;;;;6280863;22;20455;-78
2021/10/25 01:22:41;;;;;;;21.65;15.98;;;6.20;99.90;;;;;;6282141;22;20283;-78
2021/10/25 01:25:09;;;;;;;22.10;15.98;;;6.20;99.90;;;;;;6280976;22;20385;-79
2021/10/25 01:27:35;;;;;;;27.42;17.05;;;6.20;99.90;;;;;;6281287;22;20023;-79
2021/10/25 01:30:03;;;;;;;23.60;17.27;;;6.10;99.90;;;;;;6281347;22;20024;-79
2021/10/25 01:32:30;;;;;;;20.90;15.10;;;6.10;99.90;;;;;;6281696;22;20051;-79
2021/10/25 01:34:57;;;;;;;28.70;17.20;;;6.10;99.90;;;;;;6280432;22;20527;-79
2021/10/25 01:37:26;;;;;;;24.13;16.90;;;6.10;99.90;;;;;;6281388;22;20318;-78
2021/10/25 01:39:52;;;;;;;23.90;15.65;;;6.10;99.90;;;;;;6281973;22;20080;-80
2021/10/25 01:42:20;;;;;;;22.30;15.95;;;6.10;99.90;;;;;;6282167;22;20406;-78
2021/10/25 01:44:47;;;;;;;25.23;17.02;;;6.00;99.90;;;;;;6285323;22;20030;-79
2021/10/25 01:47:13;;;;;;;22.10;16.80;;;6.00;99.90;;;;;;6288550;22;20023;-80
2021/10/25 01:49:40;;;;;;;23.35;16.85;;;6.00;99.90;;;;;;6285911;22;20028;-79
2021/10/25 01:52:08;;;;;;;25.60;17.05;;;6.00;99.90;;;;;;6284011;22;20024;-81
2021/10/25 01:54:36;;;;;;;29.98;17.35;;;6.00;99.90;;;;;;6281544;22;20024;-79
2021/10/25 01:57:07;;;;;;;25.55;18.13;;;5.90;99.90;;;;;;6280532;22;20023;-82
2021/10/25 01:59:34;;;;;;;30.30;19.00;;;5.90;99.90;;;;;;6281348;22;20054;-80
2021/10/25 02:02:01;;;;;;;26.05;18.13;;;5.80;99.90;;;;;;6282491;22;20024;-79
2021/10/25 02:04:29;;;;;;;23.80;17.55;;;5.80;99.90;;;;;;6284000;22;20070;-80
2021/10/25 02:06:55;;;;;;;26.27;17.70;;;5.70;99.90;;;;;;6283444;22;20024;-81
2021/10/25 02:09:23;;;;;;;26.83;18.17;;;5.70;99.90;;;;;;6285028;22;20031;-80
2021/10/25 02:11:51;;;;;;;29.58;18.08;;;5.70;99.90;;;;;;6285645;22;20020;-80
2021/10/25 02:14:18;;;;;;;30.92;18.15;;;5.70;99.90;;;;;;6289100;22;20058;-80
2021/10/25 02:16:45;;;;;;;27.08;18.23;;;5.70;99.90;;;;;;6287234;22;20058;-81
2021/10/25 02:19:13;;;;;;;27.88;19.30;;;5.70;99.90;;;;;;6290467;22;20024;-80
2021/10/25 02:21:42;;;;;;;29.38;18.80;;;5.70;99.90;;;;;;6289632;22;20020;-80
2021/10/25 02:24:10;;;;;;;26.83;18.27;;;5.70;99.90;;;;;;6290490;22;20024;-80
2021/10/25 02:26:37;;;;;;;26.33;17.75;;;5.70;99.90;;;;;;6289282;22;20023;-82
2021/10/25 02:29:05;;;;;;;27.25;18.50;;;5.70;99.90;;;;;;6290350;22;20024;-80
2021/10/25 02:31:33;;;;;;;27.63;18.98;;;5.60;99.90;;;;;;6292810;22;20031;-79
2021/10/25 02:34:00;;;;;;;27.52;18.30;;;5.60;99.90;;;;;;6289474;22;20030;-80
2021/10/25 02:36:26;;;;;;;29.13;18.15;;;5.50;99.90;;;;;;6279518;22;20095;-78
2021/10/25 02:38:54;;;;;;;27.88;17.95;;;5.50;99.90;;;;;;6277775;22;20349;-79
2021/10/25 02:41:21;;;;;;;26.40;18.27;;;5.40;99.90;;;;;;6280905;22;20103;-79
2021/10/25 02:43:48;;;;;;;23.83;18.33;;;5.40;99.90;;;;;;6286169;22;20020;-80
2021/10/25 02:46:17;;;;;;;28.38;18.48;;;5.30;99.90;;;;;;6286695;22;20028;-80
2021/10/25 02:48:45;;;;;;;28.63;18.17;;;5.30;99.90;;;;;;6288911;22;20030;-81
2021/10/25 02:51:13;;;;;;;26.73;18.95;;;5.30;99.90;;;;;;6289858;22;20019;-80
2021/10/25 02:53:40;;;;;;;28.25;17.77;;;5.30;99.90;;;;;;6290243;22;20031;-80
2021/10/25 02:56:07;;;;;;;28.50;17.80;;;5.30;99.90;;;;;;6287690;22;20019;-80
2021/10/25 02:58:33;;;;;;;28.83;18.48;;;5.30;99.90;;;;;;6284390;22;20069;-80
2021/10/25 03:01:00;;;;;;;27.85;17.95;;;5.30;99.90;;;;;;6283712;22;20032;-81
2021/10/25 03:03:28;;;;;;;28.27;19.25;;;5.30;99.90;;;;;;6286572;22;20023;-80
2021/10/25 03:05:55;;;;;;;27.63;18.60;;;5.30;99.90;;;;;;6284345;22;20054;-80
2021/10/25 03:08:22;;;;;;;25.38;18.05;;;5.30;99.90;;;;;;6285177;22;20051;-80
2021/10/25 03:10:49;;;;;;;27.40;18.45;;;5.30;99.90;;;;;;6283726;22;20024;-80
2021/10/25 03:13:18;;;;;;;27.17;18.05;;;5.30;99.90;;;;;;6279944;22;20345;-78
2021/10/25 03:15:45;;;;;;;26.23;17.23;;;5.30;99.90;;;;;;6281284;22;20137;-79
2021/10/25 03:18:14;;;;;;;22.17;17.60;;;5.30;99.90;;;;;;6283629;22;20020;-80
2021/10/25 03:20:44;;;;;;;25.88;17.38;;;5.40;99.90;;;;;;6282968;22;20035;-80
2021/10/25 03:23:11;;;;;;;26.17;17.65;;;5.30;99.90;;;;;;6281608;22;20445;-80
2021/10/25 03:25:38;;;;;;;25.55;17.48;;;5.30;99.90;;;;;;6280776;22;20023;-80
2021/10/25 03:28:05;;;;;;;29.40;17.20;;;5.30;99.90;;;;;;6280171;22;20046;-78
2021/10/25 03:30:32;;;;;;;25.60;17.90;;;5.40;99.90;;;;;;6281330;22;20023;-79
2021/10/25 03:33:00;;;;;;;28.52;18.35;;;5.40;99.90;;;;;;6282624;22;20098;-81
2021/10/25 03:35:29;;;;;;;29.77;17.15;;;5.40;99.90;;;;;;6283388;22;20496;-79
2021/10/25 03:37:58;;;;;;;26.50;17.75;;;5.40;99.90;;;;;;6282221;22;20054;-80
2021/10/25 03:40:27;;;;;;;27.10;18.13;;;5.40;99.90;;;;;;6278035;22;20023;-80
2021/10/25 03:42:59;;;;;;;23.55;16.50;;;5.40;99.90;;;;;;6279288;22;20295;-80
2021/10/25 03:45:30;;;;;;;26.33;17.65;;;5.40;99.90;;;;;;6280528;22;20051;-80
2021/10/25 03:48:01;;;;;;;27.27;17.90;;;5.40;99.90;;;;;;6281600;22;20023;-80
2021/10/25 03:50:30;;;;;;;29.20;16.75;;;5.40;99.90;;;;;;6282188;22;20038;-80
2021/10/25 03:53:04;;;;;;;28.20;17.98;;;5.40;99.90;;;;;;6280192;22;20047;-80
2021/10/25 03:55:38;;;;;;;27.27;18.05;;;5.40;99.90;;;;;;6281257;22;20019;-80
2021/10/25 04:04:16;;;;;;;27.35;18.27;;;5.20;99.90;;;;;;6151000;23;20421;-80
2021/10/25 04:26:16;;;;;;;30.75;19.63;;;5.00;99.90;;;;;;6280023;22;20046;-79
2021/10/25 04:28:44;;;;;;;24.42;18.52;;;4.90;99.90;;;;;;6277754;22;20425;-78
2021/10/25 04:31:11;;;;;;;28.67;18.95;;;4.90;99.90;;;;;;6277873;22;20073;-79
2021/10/25 04:33:38;;;;;;;30.33;20.02;;;4.90;99.90;;;;;;6277165;22;20051;-79
2021/10/25 04:36:05;;;;;;;25.27;18.73;;;5.00;99.90;;;;;;6278165;22;20019;-80
2021/10/25 04:38:34;;;;;;;29.50;17.73;;;5.00;99.90;;;;;;6278052;22;20020;-80
2021/10/25 04:41:03;;;;;;;28.63;18.70;;;5.00;99.90;;;;;;6277614;22;20035;-80
2021/10/25 04:43:30;;;;;;;26.13;19.98;;;5.00;99.90;;;;;;6278080;22;20024;-81
2021/10/25 04:45:57;;;;;;;29.55;17.95;;;5.00;99.90;;;;;;6277334;22;20163;-79
2021/10/25 04:48:24;;;;;;;28.38;18.08;;;5.00;99.90;;;;;;6277803;22;20244;-79
2021/10/25 04:50:51;;;;;;;24.23;17.25;;;5.00;99.90;;;;;;6277137;22;20031;-80
2021/10/25 04:53:17;;;;;;;24.88;16.70;;;5.00;99.90;;;;;;6276042;22;20050;-79
2021/10/25 04:55:44;;;;;;;25.50;16.88;;;5.00;99.90;;;;;;6275958;22;20055;-81
2021/10/25 04:58:13;;;;;;;27.05;17.00;;;4.90;99.90;;;;;;6277074;22;20059;-79
2021/10/25 05:00:40;;;;;;;26.77;17.17;;;4.90;99.90;;;;;;6279271;22;20031;-80
2021/10/25 05:03:07;;;;;;;24.83;15.85;;;4.90;99.90;;;;;;6277484;22;20079;-80
2021/10/25 05:05:34;;;;;;;22.92;16.13;;;4.90;99.90;;;;;;6279094;22;20031;-80
2021/10/25 05:08:01;;;;;;;25.45;15.43;;;4.90;99.90;;;;;;6282238;22;20106;-81
2021/10/25 05:10:28;;;;;;;21.75;15.95;;;4.90;99.90;;;;;;6279797;22;20035;-80
2021/10/25 05:12:55;;;;;;;25.40;15.27;;;4.90;99.90;;;;;;6276293;22;20090;-80
2021/10/25 05:15:23;;;;;;;23.98;15.75;;;5.00;99.90;;;;;;6279369;22;20051;-80
2021/10/25 05:17:50;;;;;;;23.08;15.30;;;5.00;99.90;;;;;;6279110;22;20103;-80
2021/10/25 05:20:17;;;;;;;19.77;13.82;;;5.00;99.90;;;;;;6280627;22;20023;-79
2021/10/25 05:22:44;;;;;;;19.65;14.27;;;5.00;99.90;;;;;;6277842;22;20050;-81
2021/10/25 05:25:11;;;;;;;21.70;14.15;;;4.90;99.90;;;;;;6282521;22;20024;-80
2021/10/25 05:27:39;;;;;;;21.17;14.60;;;4.90;99.90;;;;;;6286097;22;20025;-82
2021/10/25 05:30:07;;;;;;;22.30;15.27;;;4.80;99.90;;;;;;6298490;22;20012;-82
2021/10/25 05:32:35;;;;;;;20.98;15.88;;;4.90;99.90;;;;;;6293932;22;20097;-80
2021/10/25 05:35:02;;;;;;;23.73;15.32;;;4.80;99.90;;;;;;6288393;22;20043;-78
2021/10/25 05:37:29;;;;;;;23.80;14.27;;;4.80;99.90;;;;;;6275433;22;20016;-78
2021/10/25 05:39:57;;;;;;;21.50;13.70;;;4.80;99.90;;;;;;6275808;22;20024;-77
2021/10/25 05:42:25;;;;;;;23.58;14.00;;;4.80;99.90;;;;;;6277192;22;20019;-78
2021/10/25 05:44:52;;;;;;;22.77;13.77;;;4.70;99.90;;;;;;6275538;22;20031;-77
2021/10/25 05:47:19;;;;;;;19.88;14.68;;;4.80;99.90;;;;;;6276336;22;20065;-79
2021/10/25 05:49:47;;;;;;;24.23;14.73;;;4.80;99.90;;;;;;6275930;22;20066;-79
2021/10/25 05:52:14;;;;;;;24.80;14.63;;;4.80;99.90;;;;;;6275819;22;20090;-79
2021/10/25 05:54:41;;;;;;;19.98;13.70;;;4.90;99.90;;;;;;6277993;22;20019;-80
2021/10/25 05:57:08;;;;;;;20.27;13.88;;;4.80;99.90;;;;;;6251440;22;20035;-80
2021/10/25 05:59:36;;;;;;;21.20;14.02;;;4.80;99.90;;;;;;6243676;23;20103;-78
2021/10/25 06:02:11;;;;;;;22.27;15.02;;;4.80;99.90;;;;;;6243732;23;20071;-79
2021/10/25 06:04:38;;;;;;;21.63;15.00;;;4.80;99.90;;;;;;6243019;23;20021;-80
2021/10/25 06:07:07;;;;;;;22.13;14.93;;;4.80;99.90;;;;;;6262501;22;20046;-79
2021/10/25 06:09:35;;;;;;;21.63;15.00;;;4.70;99.90;;;;;;6274792;22;20029;-78
2021/10/25 06:12:05;;;;;;;27.42;15.35;;;4.70;99.90;;;;;;6274149;22;20454;-77
2021/10/25 06:14:36;;;;;;;22.75;15.23;;;4.70;99.90;;;;;;6274045;22;20387;-78
2021/10/25 06:17:14;;;;;;;23.95;16.85;;;4.60;99.90;;;;;;6273250;22;20026;-78
2021/10/25 06:19:43;;;;;;;24.13;16.00;;;4.60;99.90;;;;;;6275074;22;20020;-75
2021/10/25 06:22:12;;;;;;;25.70;16.30;;;4.60;99.90;;;;;;6275796;22;20051;-77
2021/10/25 06:24:39;;;;;;;24.67;16.50;;;4.60;99.90;;;;;;6275496;22;20031;-76
2021/10/25 06:27:06;;;;;;;25.80;16.48;;;4.60;99.90;;;;;;6274920;22;20138;-76
2021/10/25 06:29:33;;;;;;;19.98;15.57;;;4.60;99.90;;;;;;6276450;22;20050;-75
2021/10/25 06:32:01;;;;;;;27.10;15.45;;;4.70;99.90;;;;;;6275852;22;20101;-79
2021/10/25 06:34:34;;;;;;;22.85;15.35;;;4.70;99.90;;;;;;6277628;22;20028;-78
2021/10/25 06:37:01;;;;;;;22.92;16.00;;;4.80;99.90;;;;;;6275123;22;20027;-77
2021/10/25 06:39:33;;;;;;;20.67;15.13;;;4.90;99.90;;;;;;6274317;22;20069;-77
2021/10/25 06:42:00;;;;;;;23.03;15.97;;;4.90;99.90;;;;;;6276312;22;20100;-77
2021/10/25 06:44:27;;;;;;;21.83;15.98;;;5.00;99.90;;;;;;6276088;22;20024;-79
2021/10/25 06:46:54;;;;;;;21.95;15.52;;;5.00;99.90;;;;;;6275646;22;20101;-77
2021/10/25 06:49:21;;;;;;;20.73;14.77;;;5.10;99.90;;;;;;6276168;22;20030;-78
2021/10/25 06:51:48;;;;;;;20.30;14.55;;;5.20;99.90;;;;;;6276165;22;20058;-77
2021/10/25 06:54:15;;;;;;;17.35;12.27;;;5.30;99.90;;;;;;6276001;22;20020;-76
2021/10/25 06:56:43;;;;;;;18.48;12.82;;;5.60;99.90;;;;;;6275505;22;20098;-76
2021/10/25 06:59:10;;;;;;;19.48;12.88;;;5.70;99.90;;;;;;6276142;22;20466;-76
2021/10/25 07:01:36;;;;;;;22.02;13.05;;;5.90;99.90;;;;;;6276075;22;20054;-75
2021/10/25 07:04:04;;;;;;;19.52;12.55;;;6.10;99.90;;;;;;6275494;22;20066;-76
2021/10/25 07:06:34;;;;;;;16.52;11.98;;;6.20;99.90;;;;;;6273316;22;20522;-76
2021/10/25 07:09:03;;;;;;;17.90;12.85;;;6.40;99.90;;;;;;6275493;22;20030;-75
2021/10/25 07:11:30;;;;;;;16.55;11.88;;;6.60;99.90;;;;;;6275928;22;20089;-77
2021/10/25 07:13:59;;;;;;;18.00;13.32;;;6.80;99.90;;;;;;6277819;22;20449;-73
2021/10/25 07:16:29;;;;;;;17.40;12.40;;;6.90;99.90;;;;;;6276043;22;20070;-76
2021/10/25 07:19:16;;;;;;;18.13;12.48;;;7.20;99.90;;;;;;6275250;22;20024;-80
2021/10/25 07:22:18;;;;;;;16.10;11.73;;;7.30;99.90;;;;;;6275311;22;20024;-76
2021/10/25 07:28:03;;;;;;;21.65;13.52;;;7.40;99.90;;;;;;6220968;22;20458;-76
2021/10/25 08:06:47;;;;;;;15.98;10.98;;;9.60;99.90;;;;;;6276426;22;20362;-77
2021/10/25 08:09:23;;;;;;;;;;;9.50;99.90;;;;;;6277108;22;20020;-77
2021/10/25 08:11:53;;;;;;;15.75;10.65;;;9.40;99.90;;;;;;6277369;22;19921;-77
2021/10/25 08:14:28;;;;;;;16.27;11.13;;;9.50;99.90;;;;;;6276347;22;20106;-77
2021/10/25 08:16:57;;;;;;;17.25;10.52;;;9.40;99.90;;;;;;6276312;22;20401;-77
2021/10/25 08:19:32;;;;;;;17.92;11.40;;;9.40;99.90;;;;;;6276553;22;20047;-78
2021/10/25 08:22:01;;;;;;;13.88;11.27;;;9.50;99.90;;;;;;6276532;22;20354;-77
2021/10/25 08:24:30;;;;;;;17.10;11.57;;;9.60;99.90;;;;;;6276795;22;20357;-76
2021/10/25 08:26:57;;;;;;;17.35;11.32;;;9.80;99.90;;;;;;6276494;22;20019;-77
2021/10/25 08:29:24;;;;;;;15.18;11.43;;;9.90;99.90;;;;;;6276964;22;20042;-76
2021/10/25 08:31:57;;;;;;;16.38;10.32;;;9.80;99.90;;;;;;6277616;22;20031;-75
2021/10/25 08:34:36;;;;;;;;;;;9.90;99.90;;;;;;6279444;22;20058;-76
2021/10/25 08:39:53;;;;;;;13.93;10.75;;;9.50;99.90;;;;;;6283064;22;20058;-77
2021/10/25 08:42:21;;;;;;;12.20;8.30;;;9.30;99.90;;;;;;6284020;22;20107;-76
2021/10/25 08:44:54;;;;;;;15.95;11.00;;;9.20;99.90;;;;;;6281123;22;20030;-77
2021/10/25 08:47:24;;;;;;;14.23;10.77;;;9.20;99.90;;;;;;6277378;22;20026;-77
2021/10/25 08:49:54;;;;;;;15.25;10.27;;;9.20;99.90;;;;;;6275071;22;20102;-78
2021/10/25 08:52:23;;;;;;;16.85;10.45;;;9.30;99.90;;;;;;6275570;22;20107;-77
2021/10/25 08:54:54;;;;;;;14.95;9.98;;;9.30;99.90;;;;;;6275458;22;20019;-77
2021/10/25 08:57:22;;;;;;;11.93;9.60;;;9.40;99.90;;;;;;6275745;22;20016;-76
2021/10/25 08:59:59;;;;;;;12.70;9.73;;;9.60;99.90;;;;;;6276880;22;20099;-76
2021/10/25 09:02:30;;;;;;;12.40;9.30;;;9.70;99.90;;;;;;6276761;22;20498;-78
2021/10/25 09:05:05;;;;;;;15.25;9.98;;;9.80;99.90;;;;;;6275940;22;20030;-76
2021/10/25 09:07:34;;;;;;;14.20;9.38;;;9.90;99.90;;;;;;6275743;22;20020;-77
2021/10/25 09:10:05;;;;;;;15.70;9.70;;;9.90;99.90;;;;;;6275756;22;20406;-76
2021/10/25 09:12:35;;;;;;;15.55;9.63;;;10.10;99.90;;;;;;6276112;22;20028;-77
2021/10/25 09:15:02;;;;;;;11.90;9.13;;;10.10;99.90;;;;;;6275889;22;20400;-77
2021/10/25 09:17:40;;;;;;;14.07;9.10;;;10.20;99.90;;;;;;6275706;22;20062;-78
2021/10/25 09:20:10;;;;;;;13.95;9.50;;;10.20;99.90;;;;;;6276084;22;20051;-78
2021/10/25 09:22:37;;;;;;;12.05;9.30;;;10.30;99.90;;;;;;6276658;22;20073;-76
2021/10/25 09:25:05;;;;;;;13.40;9.52;;;10.30;99.90;;;;;;6275861;22;20062;-77
2021/10/25 09:27:34;;;;;;;16.30;9.52;;;10.40;99.90;;;;;;6275455;22;20020;-77
2021/10/25 09:30:09;;;;;;;13.07;9.20;;;10.50;99.90;;;;;;6275866;22;20023;-78
2021/10/25 09:32:40;;;;;;;13.23;9.13;;;10.50;99.90;;;;;;6275460;22;20020;-77
2021/10/25 09:35:17;;;;;;;13.63;8.95;;;10.60;99.90;;;;;;6275369;22;20461;-77
2021/10/25 09:37:53;;;;;;;12.50;9.05;;;10.70;99.90;;;;;;6275403;22;20027;-76
2021/10/25 09:40:23;;;;;;;11.77;8.05;;;10.80;99.90;;;;;;6276086;22;20047;-76
2021/10/25 09:45:51;;;;;;;10.30;8.43;;;11.00;99.90;;;;;;6275775;22;20085;-76
2021/10/25 09:51:04;;;;;;;10.10;7.85;;;11.30;99.90;;;;;;6243601;22;20020;-77
2021/10/25 09:53:34;;;;;;;11.48;7.50;;;11.40;99.90;;;;;;6275860;22;20103;-77
2021/10/25 09:56:01;;;;;;;11.82;7.47;;;11.60;99.90;;;;;;6276132;22;20102;-77
2021/10/25 09:58:42;;;;;;;13.75;9.43;;;11.70;99.90;;;;;;6274395;22;20404;-78
2021/10/25 10:01:13;;;;;;;9.38;6.80;;;11.80;99.90;;;;;;6275746;22;20020;-78
2021/10/25 10:03:43;;;;;;;13.27;7.10;;;12.00;99.90;;;;;;6279656;22;20074;-79
2021/10/25 10:06:12;;;;;;;10.52;7.57;;;12.10;99.90;;;;;;6275745;22;20098;-77
2021/10/25 10:08:40;;;;;;;11.45;6.47;;;12.10;99.90;;;;;;6275295;22;20012;-77
2021/10/25 10:11:09;;;;;;;10.68;7.20;;;12.20;99.90;;;;;;6275400;22;20015;-81
2021/10/25 10:13:43;;;;;;;9.98;6.90;;;12.30;99.90;;;;;;6275803;22;20023;-77
2021/10/25 10:16:11;;;;;;;9.52;7.25;;;12.40;99.90;;;;;;6276544;22;20020;-78
2021/10/25 10:18:43;;;;;;;10.38;7.32;;;12.50;99.90;;;;;;6277551;22;20157;-78
2021/10/25 10:21:34;;;;;;;9.13;7.00;;;12.60;99.90;;;;;;6278121;22;20483;-78
2021/10/25 10:24:09;;;;;;;10.48;7.00;;;12.70;99.90;;;;;;6279515;22;20031;-78
2021/10/25 10:26:40;;;;;;;10.52;7.60;;;12.80;99.90;;;;;;6278076;22;20410;-77
2021/10/25 10:29:11;;;;;;;8.27;6.88;;;12.80;99.90;;;;;;6278986;22;20020;-77
2021/10/25 10:31:42;;;;;;;13.77;6.78;;;12.80;99.90;;;;;;6278283;22;20051;-79
2021/10/25 10:34:14;;;;;;;10.93;7.32;;;12.90;99.90;;;;;;6278173;22;20028;-78
2021/10/25 10:36:53;;;;;;;11.77;7.10;;;12.90;99.90;;;;;;6278095;22;20474;-79
2021/10/25 10:39:27;;;;;;;10.15;6.90;;;13.00;99.90;;;;;;6277443;22;20111;-78
2021/10/25 10:41:56;;;;;;;10.38;6.93;;;13.10;99.90;;;;;;6279554;22;20020;-78
2021/10/25 10:44:28;;;;;;;15.50;7.70;;;13.10;99.90;;;;;;6277934;22;20049;-79
2021/10/25 10:46:58;;;;;;;10.75;6.70;;;13.20;99.90;;;;;;6276711;22;20055;-77
2021/10/25 10:49:32;;;;;;;12.38;6.70;;;13.30;99.90;;;;;;6276358;22;20024;-78
2021/10/25 10:52:19;;;;;;;14.30;6.95;;;13.50;99.90;;;;;;6276093;22;20102;-78
2021/10/25 10:54:58;;;;;;;9.23;6.63;;;13.70;99.90;;;;;;6276388;22;20020;-77
2021/10/25 10:57:58;;;;;;;12.57;6.90;;;13.80;99.90;;;;;;6275938;22;20426;-78
2021/10/25 11:00:33;;;;;;;9.48;6.03;;;14.00;99.90;;;;;;6275909;22;20098;-78
2021/10/25 11:03:04;;;;;;;9.48;6.68;;;14.30;99.90;;;;;;6276457;22;20098;-78
2021/10/25 11:05:38;;;;;;;8.00;6.43;;;14.50;99.90;;;;;;6276494;22;20026;-77
2021/10/25 11:08:11;;;;;;;10.50;6.40;;;14.70;99.90;;;;;;6276150;22;20031;-78
2021/10/25 11:10:40;;;;;;;9.73;6.70;;;14.70;99.90;;;;;;6276257;22;20454;-78
2021/10/25 11:13:13;;;;;;;10.57;6.65;;;14.80;99.90;;;;;;6276614;22;20075;-79
2021/10/25 11:15:53;;;;;;;9.52;6.60;;;14.80;99.90;;;;;;6276279;22;20039;-76
2021/10/25 11:18:26;;;;;;;10.82;5.80;;;14.90;99.90;;;;;;6275911;22;20023;-77
2021/10/25 11:21:05;;;;;;;9.15;6.47;;;14.80;99.90;;;;;;6276385;22;20062;-77
2021/10/25 11:23:40;;;;;;;9.80;5.85;;;14.90;99.90;;;;;;6276340;22;20358;-77
2021/10/25 11:26:17;;;;;;;8.50;6.00;;;15.00;99.90;;;;;;6275239;22;20060;-77
2021/10/25 11:29:02;;;;;;;7.25;5.80;;;15.00;99.90;;;;;;6275986;22;20034;-78
2021/10/25 11:31:35;;;;;;;10.77;5.93;;;15.10;99.90;;;;;;6276278;22;20449;-77
2021/10/25 11:34:11;;;;;;;10.38;5.95;;;15.20;99.90;;;;;;6277314;22;20358;-78
2021/10/25 11:36:49;;;;;;;9.32;5.53;;;15.30;99.90;;;;;;6276701;22;20027;-78
2021/10/25 11:39:29;;;;;;;7.90;5.38;;;15.50;99.90;;;;;;6281213;22;20015;-79
2021/10/25 11:41:59;;;;;;;12.30;5.57;;;15.80;99.90;;;;;;6276442;22;20026;-78
2021/10/25 11:44:34;;;;;;;10.88;6.20;;;15.90;99.90;;;;;;6276220;22;20020;-78
2021/10/25 11:47:03;;;;;;;9.80;5.78;;;16.00;99.90;;;;;;6275861;22;20030;-78
2021/10/25 11:49:40;;;;;;;9.95;5.80;;;16.00;99.90;;;;;;6276320;22;20461;-78
2021/10/25 11:52:08;;;;;;;8.10;5.15;;;16.00;99.90;;;;;;6276844;22;20094;-79
2021/10/25 11:54:54;;;;;;;8.27;5.43;;;16.00;99.90;;;;;;6276680;22;20031;-80
2021/10/25 11:57:22;;;;;;;15.60;6.13;;;16.30;99.90;;;;;;6247691;22;20020;-76
2021/10/25 11:59:59;;;;;;;9.75;5.80;;;16.40;99.90;;;;;;6219348;23;20048;-76
2021/10/25 12:02:27;;;;;;;7.82;5.47;;;16.40;99.90;;;;;;6229869;23;20021;-77
2021/10/25 12:04:53;;;;;;;8.20;6.15;;;16.40;99.90;;;;;;6233289;23;20040;-77
2021/10/25 12:07:20;;;;;;;8.23;5.57;;;16.40;99.90;;;;;;6248560;23;20028;-76
2021/10/25 12:09:58;;;;;;;8.38;5.55;;;16.40;99.90;;;;;;6261932;23;20039;-77
2021/10/25 12:12:25;;;;;;;8.48;5.55;;;16.60;99.90;;;;;;6256616;23;20315;-77
2021/10/25 12:14:57;;;;;;;8.98;5.75;;;16.80;99.90;;;;;;6252589;23;20058;-78
2021/10/25 12:17:30;;;;;;;9.65;6.90;;;16.80;99.90;;;;;;6247289;23;20485;-79
2021/10/25 12:19:57;;;;;;;10.18;6.40;;;16.80;99.90;;;;;;6246212;23;20047;-76
2021/10/25 12:22:24;;;;;;;12.35;7.57;;;16.50;99.90;;;;;;6246501;23;20095;-77
2021/10/25 12:24:56;;;;;;;14.25;7.38;;;16.40;99.90;;;;;;6245847;23;20023;-77
2021/10/25 12:27:26;;;;;;;12.80;7.72;;;16.40;99.90;;;;;;6246690;23;20466;-76
2021/10/25 12:30:06;;;;;;;10.68;6.72;;;16.20;99.90;;;;;;6246242;23;20027;-77
2021/10/25 12:32:35;;;;;;;11.77;6.55;;;16.30;99.90;;;;;;6246216;23;20055;-77
2021/10/25 12:35:03;;;;;;;12.52;5.90;;;16.30;99.90;;;;;;6245806;23;20020;-77
2021/10/25 12:37:32;;;;;;;7.45;5.38;;;16.50;99.90;;;;;;6245867;23;20024;-77
2021/10/25 12:40:02;;;;;;;9.25;5.47;;;16.70;99.90;;;;;;6245982;23;20095;-77
2021/10/25 12:42:41;;;;;;;7.60;5.10;;;16.80;99.90;;;;;;6247193;23;20028;-76
2021/10/25 12:45:16;;;;;;;9.07;6.05;;;16.90;99.90;;;;;;6244853;23;20043;-76
2021/10/25 12:47:43;;;;;;;10.38;5.38;;;17.00;99.90;;;;;;6245515;23;20024;-78
2021/10/25 12:50:13;;;;;;;9.30;5.05;;;17.00;99.90;;;;;;6247296;23;20031;-77
2021/10/25 12:52:42;;;;;;;7.63;5.22;;;17.10;99.90;;;;;;6246106;23;20023;-77
2021/10/25 12:55:10;;;;;;;9.13;5.47;;;17.20;99.90;;;;;;6245165;23;20085;-79
2021/10/25 12:57:41;;;;;;;9.70;6.00;;;17.10;99.90;;;;;;6263979;22;20475;-77
2021/10/25 13:00:11;;;;;;;9.20;6.22;;;17.10;99.90;;;;;;6277445;22;20098;-77
2021/10/25 13:02:43;;;;;;;11.57;5.10;;;17.20;99.90;;;;;;6276215;22;20024;-77
2021/10/25 13:05:15;;;;;;;9.10;4.57;;;17.10;99.90;;;;;;6276414;22;20023;-77
2021/10/25 13:07:47;;;;;;;6.63;4.45;;;17.10;99.90;;;;;;6276204;22;20030;-77
2021/10/25 13:10:16;;;;;;;8.77;4.57;;;16.90;99.90;;;;;;6276805;22;20024;-76
2021/10/25 13:12:44;;;;;;;8.35;4.40;;;16.90;99.90;;;;;;6276668;22;20335;-79
2021/10/25 13:15:11;;;;;;;7.93;4.45;;;16.90;99.90;;;;;;6275934;22;20020;-76
2021/10/25 13:17:38;;;;;;;7.15;4.13;;;16.80;99.90;;;;;;6277863;22;20327;-77
2021/10/25 13:20:07;;;;;;;6.47;4.40;;;16.80;99.90;;;;;;6277845;22;20130;-77
2021/10/25 13:22:34;;;;;;;6.53;3.85;;;16.90;99.90;;;;;;6276705;22;20319;-77
2021/10/25 13:25:01;;;;;;;5.30;4.07;;;16.80;99.90;;;;;;6275801;22;20034;-80
2021/10/25 13:27:29;;;;;;;8.07;4.38;;;16.80;99.90;;;;;;6276924;22;20031;-76
2021/10/25 13:29:56;;;;;;;7.78;4.68;;;16.80;99.90;;;;;;6276138;22;20476;-77
2021/10/25 13:32:23;;;;;;;8.13;4.15;;;16.90;99.90;;;;;;6276959;22;20095;-80
2021/10/25 13:34:51;;;;;;;7.78;4.10;;;16.80;99.90;;;;;;6276728;22;20027;-80
2021/10/25 13:37:18;;;;;;;8.88;4.32;;;16.90;99.90;;;;;;6276393;22;20095;-80
2021/10/25 13:39:45;;;;;;;8.32;4.90;;;17.00;99.90;;;;;;6275998;22;20388;-77
2021/10/25 13:42:12;;;;;;;9.32;4.32;;;17.10;99.90;;;;;;6275335;22;20047;-77
2021/10/25 13:44:40;;;;;;;5.82;3.90;;;17.10;99.90;;;;;;6275603;22;20059;-77
2021/10/25 13:47:07;;;;;;;5.63;4.07;;;17.10;99.90;;;;;;6275186;22;20407;-77
2021/10/25 13:49:34;;;;;;;8.05;4.30;;;17.00;99.90;;;;;;6276108;22;20127;-77
2021/10/25 13:52:01;;;;;;;5.47;4.18;;;17.00;99.90;;;;;;6277926;22;20047;-77
2021/10/25 13:54:28;;;;;;;7.88;4.40;;;16.90;99.90;;;;;;6278108;22;20020;-79
2021/10/25 13:56:56;;;;;;;8.38;4.32;;;16.90;99.90;;;;;;6277389;22;20047;-75
2021/10/25 13:59:23;;;;;;;6.68;4.30;;;16.80;99.90;;;;;;6277459;22;20046;-76
2021/10/25 14:01:52;;;;;;;11.05;4.13;;;16.70;99.90;;;;;;6278051;22;20051;-77
2021/10/25 14:04:20;;;;;;;7.47;4.47;;;16.80;99.90;;;;;;6278374;22;20350;-76
2021/10/25 14:06:47;;;;;;;6.78;4.47;;;16.80;99.90;;;;;;6277820;22;20031;-77